createdAt,value
2024-01-16T00:01:17.756Z,74.63
2024-01-16T00:03:48.476Z,76.14
2024-01-16T00:06:17.175Z,75.88
2024-01-16T00:08:45.650Z,74.24
2024-01-16T00:11:14.421Z,74.27
2024-01-16T00:13:43.332Z,76.23
2024-01-16T00:16:12.092Z,77.14
2024-01-16T00:18:40.823Z,75.47
2024-01-16T00:21:09.456Z,74.11
2024-01-16T00:23:38.184Z,74.21
2024-01-16T00:26:07.665Z,74.54
2024-01-16T00:28:36.439Z,74.64
2024-01-16T00:31:09.535Z,76.20
2024-01-16T00:33:38.240Z,75.29
2024-01-16T00:36:07.343Z,74.73
2024-01-16T00:38:36.037Z,77.68
2024-01-16T00:41:05.379Z,81.51
2024-01-16T00:43:36.382Z,78.19
2024-01-16T00:46:05.844Z,76.67
2024-01-16T00:48:34.504Z,77.25
2024-01-16T00:51:04.490Z,76.80
2024-01-16T00:53:33.188Z,76.49
2024-01-16T00:56:01.863Z,77.58
2024-01-16T00:58:31.025Z,80.71
2024-01-16T01:00:59.936Z,80.09
2024-01-16T01:03:29.225Z,77.45
2024-01-16T01:05:59.582Z,77.47
2024-01-16T01:08:28.558Z,77.39
2024-01-16T01:10:57.658Z,77.28
2024-01-16T01:13:26.626Z,77.16
2024-01-16T01:15:55.299Z,77.41
2024-01-16T01:18:24.647Z,76.85
2024-01-16T01:20:53.458Z,77.20
2024-01-16T01:23:22.409Z,77.50
2024-01-16T01:25:51.269Z,77.51
2024-01-16T01:28:20.362Z,77.38
2024-01-16T01:30:49.167Z,77.26
2024-01-16T01:33:18.955Z,77.01
2024-01-16T01:35:47.741Z,77.57
2024-01-16T01:38:17.271Z,78.78
2024-01-16T01:40:45.948Z,78.28
2024-01-16T01:43:22.285Z,77.96
2024-01-16T01:46:04.184Z,78.32
2024-01-16T01:48:33.793Z,78.55
2024-01-16T01:51:03.083Z,77.83
2024-01-16T01:53:32.832Z,78.10
2024-01-16T01:56:02.666Z,77.65
2024-01-16T01:58:31.289Z,78.57
2024-01-16T02:01:00.961Z,78.03
2024-01-16T02:03:30.980Z,77.51
2024-01-16T02:06:00.573Z,77.18
2024-01-16T02:08:29.245Z,77.40
2024-01-16T02:10:58.297Z,78.36
2024-01-16T02:13:26.982Z,78.53
2024-01-16T02:15:55.697Z,78.30
2024-01-16T02:18:24.706Z,77.65
2024-01-16T02:20:53.854Z,77.63
2024-01-16T02:23:28.214Z,77.51
2024-01-16T02:25:57.068Z,78.02
2024-01-16T02:28:25.649Z,77.64
2024-01-16T02:30:54.528Z,79.06
2024-01-16T02:33:23.239Z,78.41
2024-01-16T02:35:52.150Z,77.99
2024-01-16T02:38:20.732Z,77.76
2024-01-16T02:40:49.603Z,78.06
2024-01-16T02:43:18.474Z,78.02
2024-01-16T02:45:47.162Z,78.42
2024-01-16T02:48:16.984Z,78.75
2024-01-16T02:50:46.081Z,78.67
2024-01-16T02:53:15.308Z,79.65
2024-01-16T02:55:43.960Z,78.53
2024-01-16T02:58:12.771Z,79.07
2024-01-16T03:00:41.263Z,78.62
2024-01-16T03:03:10.435Z,78.96
2024-01-16T03:05:39.190Z,79.77
2024-01-16T03:08:08.498Z,78.93
2024-01-16T03:10:37.417Z,78.78
2024-01-16T03:13:06.526Z,78.63
2024-01-16T03:15:35.402Z,79.35
2024-01-16T03:18:04.835Z,79.63
2024-01-16T03:20:34.139Z,79.06
2024-01-16T03:23:03.095Z,79.47
2024-01-16T03:25:31.985Z,78.88
2024-01-16T03:28:00.568Z,78.75
2024-01-16T03:30:29.617Z,78.16
2024-01-16T03:32:58.826Z,78.12
2024-01-16T03:35:27.668Z,78.29
2024-01-16T03:37:56.436Z,78.42
2024-01-16T03:40:25.132Z,78.38
2024-01-16T03:42:54.421Z,78.41
2024-01-16T03:45:22.904Z,79.00
2024-01-16T03:47:51.895Z,77.74
2024-01-16T03:50:21.001Z,77.85
2024-01-16T03:52:49.987Z,78.46
2024-01-16T03:55:18.975Z,78.48
2024-01-16T03:57:48.682Z,78.52
2024-01-16T04:00:17.893Z,78.54
2024-01-16T04:02:46.548Z,78.32
2024-01-16T04:05:15.552Z,78.40
2024-01-16T04:07:44.441Z,78.62
2024-01-16T04:10:13.136Z,78.91
2024-01-16T04:12:42.331Z,78.60
2024-01-16T04:15:11.219Z,78.46
2024-01-16T04:17:39.844Z,78.34
2024-01-16T04:20:09.658Z,78.48
2024-01-16T04:22:38.401Z,78.99
2024-01-16T04:25:07.393Z,79.45
2024-01-16T04:27:35.987Z,79.06
2024-01-16T04:30:05.747Z,79.27
2024-01-16T04:32:35.073Z,79.48
2024-01-16T04:35:04.697Z,79.48
2024-01-16T04:37:33.279Z,79.68
2024-01-16T04:40:01.908Z,79.78
2024-01-16T04:42:31.185Z,79.85
2024-01-16T04:45:00.054Z,79.48
2024-01-16T04:47:28.661Z,79.08
2024-01-16T04:49:57.640Z,79.34
2024-01-16T04:52:26.321Z,80.12
2024-01-16T04:54:54.815Z,80.13
2024-01-16T04:57:24.611Z,79.80
2024-01-16T04:59:53.255Z,79.85
2024-01-16T05:02:21.924Z,80.12
2024-01-16T05:04:53.246Z,80.67
2024-01-16T05:07:22.041Z,81.40
2024-01-16T05:09:50.810Z,81.66
2024-01-16T05:12:19.690Z,81.58
2024-01-16T05:14:49.615Z,81.94
2024-01-16T05:17:18.450Z,82.11
2024-01-16T05:19:47.010Z,82.69
2024-01-16T05:22:16.792Z,83.13
2024-01-16T05:24:46.807Z,82.97
2024-01-16T05:27:15.796Z,83.02
2024-01-16T05:29:44.852Z,83.12
2024-01-16T05:32:16.354Z,83.25
2024-01-16T05:34:45.305Z,83.45
2024-01-16T05:37:14.123Z,83.66
2024-01-16T05:39:44.042Z,84.43
2024-01-16T05:42:13.840Z,84.98
2024-01-16T05:44:42.462Z,84.35
2024-01-16T05:47:11.961Z,82.75
2024-01-16T05:49:40.879Z,82.49
2024-01-16T05:52:10.236Z,82.79
2024-01-16T05:54:38.920Z,83.67
2024-01-16T05:57:07.812Z,83.42
2024-01-16T05:59:36.409Z,82.87
2024-01-16T06:02:05.472Z,82.94
2024-01-16T06:04:34.377Z,82.99
2024-01-16T06:07:05.052Z,83.02
2024-01-16T06:09:33.782Z,82.89
2024-01-16T06:12:02.595Z,84.02
2024-01-16T06:14:32.112Z,82.56
2024-01-16T06:17:01.789Z,82.21
2024-01-16T06:19:30.409Z,82.07
2024-01-16T06:22:02.742Z,82.19
2024-01-16T06:24:38.333Z,81.93
2024-01-16T06:27:10.350Z,82.12
2024-01-16T06:29:39.237Z,82.26
2024-01-16T06:32:09.279Z,83.45
2024-01-16T06:34:38.402Z,85.05
2024-01-16T06:37:07.348Z,85.05
2024-01-16T06:39:39.304Z,85.64
2024-01-16T06:42:10.804Z,86.38
2024-01-16T06:44:40.234Z,85.67
2024-01-16T06:47:09.106Z,85.54
2024-01-16T06:49:38.253Z,85.57
2024-01-16T06:52:08.626Z,85.84
2024-01-16T06:54:37.082Z,85.07
2024-01-16T06:57:06.155Z,84.74
2024-01-16T06:59:35.060Z,84.45
2024-01-16T07:02:04.853Z,84.44
2024-01-16T07:04:34.351Z,84.71
2024-01-16T07:07:03.133Z,85.14
2024-01-16T07:09:31.609Z,85.05
2024-01-16T07:12:00.171Z,83.36
2024-01-16T07:14:29.609Z,75.60
2024-01-16T07:16:58.379Z,71.67
2024-01-16T07:19:27.220Z,71.33
2024-01-16T07:21:56.321Z,68.72
2024-01-16T07:24:25.871Z,65.21
2024-01-16T07:26:55.676Z,62.72
2024-01-16T07:29:24.420Z,66.54
2024-01-16T07:31:54.285Z,66.29
2024-01-16T07:34:23.544Z,67.09
2024-01-16T07:36:52.158Z,67.74
2024-01-16T07:39:20.738Z,67.63
2024-01-16T07:41:49.466Z,66.74
2024-01-16T07:44:18.484Z,64.38
2024-01-16T07:46:47.311Z,57.47
2024-01-16T07:49:16.386Z,60.02
2024-01-16T07:51:45.748Z,63.17
2024-01-16T07:54:16.488Z,65.97
2024-01-16T07:56:46.009Z,65.18
2024-01-16T07:59:15.591Z,62.99
2024-01-16T08:01:45.798Z,58.62
2024-01-16T08:04:17.452Z,59.18
2024-01-16T08:06:49.326Z,63.19
2024-01-16T08:09:21.496Z,64.01
2024-01-16T08:11:50.636Z,63.17
2024-01-16T08:14:19.544Z,65.12
2024-01-16T08:16:48.343Z,66.82
2024-01-16T08:19:17.251Z,66.98
2024-01-16T08:21:49.192Z,67.34
2024-01-16T08:24:18.208Z,68.12
2024-01-16T08:26:46.846Z,68.23
2024-01-16T08:29:16.000Z,68.44
2024-01-16T08:31:44.666Z,67.43
2024-01-16T08:34:15.128Z,65.74
2024-01-16T08:36:46.796Z,62.28
2024-01-16T08:39:15.369Z,54.72
2024-01-16T08:41:44.445Z,50.63
2024-01-16T08:44:14.259Z,51.90
2024-01-16T08:46:43.336Z,54.59
2024-01-16T08:49:16.273Z,53.92
2024-01-16T08:51:51.465Z,52.20
2024-01-16T08:54:20.447Z,53.54
2024-01-16T08:56:49.121Z,54.26
2024-01-16T08:59:18.350Z,54.49
2024-01-16T09:01:47.234Z,53.72
2024-01-16T09:04:15.990Z,54.29
2024-01-16T09:06:44.973Z,52.20
2024-01-16T09:09:17.367Z,51.48
2024-01-16T09:11:45.897Z,47.61
2024-01-16T09:14:15.796Z,43.53
2024-01-16T09:16:44.658Z,39.39
2024-01-16T09:19:13.667Z,40.47
2024-01-16T09:21:42.358Z,43.68
2024-01-16T09:24:13.941Z,43.04
2024-01-16T09:26:45.487Z,39.28
2024-01-16T09:29:15.924Z,41.86
2024-01-16T09:31:44.864Z,35.19
2024-01-16T09:34:16.600Z,33.96
2024-01-16T09:36:47.767Z,38.24
2024-01-16T09:39:19.317Z,33.71
2024-01-16T09:41:51.064Z,31.48
2024-01-16T09:44:21.664Z,31.52
2024-01-16T09:46:51.748Z,30.94
2024-01-16T09:49:20.764Z,32.40
2024-01-16T09:51:49.605Z,30.89
2024-01-16T09:54:19.098Z,27.10
2024-01-16T09:56:50.028Z,28.46
2024-01-16T09:59:22.631Z,27.01
2024-01-16T10:01:57.278Z,27.50
2024-01-16T10:04:26.794Z,26.86
2024-01-16T10:06:57.630Z,28.31
2024-01-16T10:09:26.962Z,25.56
2024-01-16T10:11:57.322Z,27.87
2024-01-16T10:14:25.900Z,26.82
2024-01-16T10:17:04.015Z,24.04
2024-01-16T10:19:43.190Z,25.06
2024-01-16T10:22:25.472Z,22.28
2024-01-16T10:25:13.826Z,22.34
2024-01-16T10:27:42.353Z,22.93
2024-01-16T10:30:11.899Z,25.00
2024-01-16T10:32:43.499Z,24.05
2024-01-16T10:35:14.369Z,23.14
2024-01-16T10:37:51.084Z,22.23
2024-01-16T10:40:23.690Z,22.21
2024-01-16T10:43:05.296Z,21.12
2024-01-16T10:45:36.039Z,21.49
2024-01-16T10:48:10.202Z,19.46
2024-01-16T10:50:40.646Z,20.57
2024-01-16T10:53:10.627Z,20.03
2024-01-16T10:55:54.558Z,18.87
2024-01-16T10:58:31.305Z,19.53
2024-01-16T11:01:07.205Z,19.69
2024-01-16T11:03:54.536Z,19.41
2024-01-16T11:06:23.469Z,19.60
2024-01-16T11:08:53.100Z,19.05
2024-01-16T11:11:22.189Z,18.25
2024-01-16T11:13:51.773Z,19.89
2024-01-16T11:16:21.481Z,19.31
2024-01-16T11:18:50.035Z,19.53
2024-01-16T11:21:19.562Z,19.72
2024-01-16T11:23:50.022Z,19.50
2024-01-16T11:26:34.810Z,19.79
2024-01-16T11:29:40.835Z,19.21
2024-01-16T11:32:22.994Z,18.56
2024-01-16T11:34:57.436Z,19.02
2024-01-16T11:37:31.386Z,19.19
2024-01-16T11:40:22.366Z,19.76
2024-01-16T11:42:56.203Z,19.13
2024-01-16T11:45:30.889Z,19.99
2024-01-16T11:48:12.761Z,19.53
2024-01-16T11:50:42.338Z,20.43
2024-01-16T11:53:11.076Z,20.21
2024-01-16T11:56:01.482Z,19.72
2024-01-16T11:58:42.449Z,19.32
2024-01-16T12:01:13.711Z,20.41
2024-01-16T12:03:42.479Z,19.73
2024-01-16T12:06:12.601Z,19.80
2024-01-16T12:08:41.404Z,19.94
2024-01-16T12:11:10.385Z,18.95
2024-01-16T12:13:39.168Z,19.46
2024-01-16T12:16:07.961Z,19.98
2024-01-16T12:18:42.627Z,20.25
2024-01-16T12:21:14.764Z,19.75
2024-01-16T12:23:52.258Z,19.53
2024-01-16T12:26:25.291Z,19.71
2024-01-16T12:28:58.288Z,19.22
2024-01-16T12:31:29.866Z,18.70
2024-01-16T12:34:11.805Z,18.91
2024-01-16T12:36:40.651Z,18.95
2024-01-16T12:39:13.807Z,18.61
2024-01-16T12:41:45.116Z,18.18
2024-01-16T12:44:16.911Z,17.67
2024-01-16T12:46:57.430Z,18.06
2024-01-16T12:49:26.644Z,18.19
2024-01-16T12:52:27.113Z,17.74
2024-01-16T12:55:02.863Z,17.99
2024-01-16T12:57:31.681Z,17.77
2024-01-16T13:00:02.674Z,18.05
2024-01-16T13:02:32.356Z,18.35
2024-01-16T13:05:04.508Z,18.86
2024-01-16T13:07:34.816Z,18.61
2024-01-16T13:10:23.887Z,18.96
2024-01-16T13:12:53.719Z,19.57
2024-01-16T13:15:22.584Z,20.42
2024-01-16T13:17:51.322Z,20.37
2024-01-16T13:20:21.291Z,20.87
2024-01-16T13:22:52.912Z,21.17
2024-01-16T13:25:21.832Z,22.04
2024-01-16T13:27:50.411Z,22.45
2024-01-16T13:30:21.826Z,23.26
2024-01-16T13:32:51.424Z,23.99
2024-01-16T13:35:20.411Z,23.98
2024-01-16T13:37:48.833Z,24.29
2024-01-16T13:40:22.590Z,24.71
2024-01-16T13:42:52.663Z,24.84
2024-01-16T13:45:21.557Z,25.14
2024-01-16T13:47:50.773Z,25.66
2024-01-16T13:50:19.962Z,25.92
2024-01-16T13:52:48.836Z,25.98
2024-01-16T13:55:17.877Z,26.30
2024-01-16T13:57:46.620Z,26.54
2024-01-16T14:00:17.002Z,27.26
2024-01-16T14:02:47.487Z,28.49
2024-01-16T14:05:19.502Z,30.02
2024-01-16T14:07:53.182Z,29.14
2024-01-16T14:10:23.462Z,29.21
2024-01-16T14:12:52.988Z,29.17
2024-01-16T14:15:26.880Z,29.63
2024-01-16T14:17:56.911Z,30.37
2024-01-16T14:20:28.454Z,31.12
2024-01-16T14:22:59.231Z,31.45
2024-01-16T14:25:28.281Z,32.04
2024-01-16T14:28:05.163Z,31.90
2024-01-16T14:30:35.883Z,32.40
2024-01-16T14:33:08.313Z,32.95
2024-01-16T14:35:37.073Z,33.80
2024-01-16T14:38:05.623Z,33.81
2024-01-16T14:40:34.406Z,35.98
2024-01-16T14:43:05.525Z,35.66
2024-01-16T14:45:34.130Z,37.15
2024-01-16T14:48:05.893Z,36.52
2024-01-16T14:50:34.786Z,36.72
2024-01-16T14:53:04.653Z,37.04
2024-01-16T14:55:34.521Z,36.91
2024-01-16T14:58:03.391Z,37.45
2024-01-16T15:00:33.207Z,38.55
2024-01-16T15:03:02.128Z,40.20
2024-01-16T15:05:31.403Z,39.53
2024-01-16T15:08:00.215Z,40.79
2024-01-16T15:10:28.976Z,39.76
2024-01-16T15:12:57.967Z,40.82
2024-01-16T15:15:27.364Z,40.47
2024-01-16T15:17:56.055Z,41.21
2024-01-16T15:20:25.518Z,40.51
2024-01-16T15:22:54.973Z,41.73
2024-01-16T15:25:24.879Z,40.90
2024-01-16T15:27:56.742Z,41.26
2024-01-16T15:30:34.155Z,41.50
2024-01-16T15:33:05.620Z,41.82
2024-01-16T15:35:35.431Z,41.74
2024-01-16T15:38:04.601Z,41.95
2024-01-16T15:40:36.350Z,41.60
2024-01-16T15:43:07.284Z,41.75
2024-01-16T15:45:35.974Z,41.73
2024-01-16T15:48:05.550Z,41.80
2024-01-16T15:50:34.400Z,42.13
2024-01-16T15:53:03.630Z,42.53
2024-01-16T15:55:38.341Z,42.57
2024-01-16T15:58:06.978Z,42.53
2024-01-16T16:00:35.574Z,42.73
2024-01-16T16:03:04.276Z,42.91
2024-01-16T16:05:33.505Z,43.08
2024-01-16T16:08:02.141Z,42.90
2024-01-16T16:10:30.623Z,43.11
2024-01-16T16:13:00.792Z,43.20
2024-01-16T16:15:30.256Z,43.51
2024-01-16T16:17:59.750Z,44.77
2024-01-16T16:20:28.516Z,43.84
2024-01-16T16:22:56.965Z,44.28
2024-01-16T16:25:25.670Z,43.78
2024-01-16T16:27:54.291Z,43.87
2024-01-16T16:30:22.852Z,44.03
2024-01-16T16:32:52.444Z,44.28
2024-01-16T16:35:23.510Z,44.02
2024-01-16T16:37:52.363Z,45.22
2024-01-16T16:40:20.945Z,45.36
2024-01-16T16:42:49.262Z,44.83
2024-01-16T16:45:18.507Z,44.64
2024-01-16T16:47:46.991Z,44.67
2024-01-16T16:50:15.928Z,45.02
2024-01-16T16:52:45.332Z,45.22
2024-01-16T16:55:18.823Z,45.22
2024-01-16T16:57:49.378Z,45.58
2024-01-16T17:00:18.412Z,46.15
2024-01-16T17:02:47.380Z,46.64
2024-01-16T17:05:18.451Z,46.56
2024-01-16T17:07:47.760Z,46.49
2024-01-16T17:10:17.408Z,49.51
2024-01-16T17:12:46.687Z,50.45
2024-01-16T17:15:17.591Z,50.31
2024-01-16T17:17:47.479Z,53.03
2024-01-16T17:20:16.408Z,55.00
2024-01-16T17:22:47.431Z,55.60
2024-01-16T17:25:16.132Z,55.99
2024-01-16T17:27:47.293Z,52.83
2024-01-16T17:30:16.835Z,51.67
2024-01-16T17:32:46.079Z,50.88
2024-01-16T17:35:15.213Z,50.63
2024-01-16T17:37:43.893Z,48.95
2024-01-16T17:40:15.363Z,50.47
2024-01-16T17:42:45.451Z,50.36
2024-01-16T17:45:15.713Z,52.16
2024-01-16T17:47:45.192Z,51.73
2024-01-16T17:50:13.826Z,53.38
2024-01-16T17:52:42.239Z,50.44
2024-01-16T17:55:13.195Z,51.06
2024-01-16T17:57:44.605Z,53.70
2024-01-16T18:00:13.847Z,53.60
2024-01-16T18:02:42.678Z,51.89
2024-01-16T18:05:18.099Z,51.95
2024-01-16T18:07:46.933Z,56.74
2024-01-16T18:10:15.854Z,53.32
2024-01-16T18:12:44.562Z,53.08
2024-01-16T18:15:14.196Z,50.97
2024-01-16T18:17:51.136Z,51.33
2024-01-16T18:20:23.393Z,51.19
2024-01-16T18:22:57.229Z,50.46
2024-01-16T18:25:28.679Z,50.59
2024-01-16T18:28:00.813Z,50.45
2024-01-16T18:30:30.073Z,50.45
2024-01-16T18:32:58.964Z,50.92
2024-01-16T18:35:27.988Z,50.40
2024-01-16T18:37:57.081Z,51.16
2024-01-16T18:40:27.316Z,54.04
2024-01-16T18:42:56.008Z,52.48
2024-01-16T18:45:24.602Z,53.46
2024-01-16T18:47:55.302Z,52.31
2024-01-16T18:50:24.260Z,52.32
2024-01-16T18:52:55.377Z,54.71
2024-01-16T18:55:23.783Z,55.28
2024-01-16T18:57:52.128Z,54.03
2024-01-16T19:00:24.490Z,55.07
2024-01-16T19:02:54.540Z,54.21
2024-01-16T19:05:24.111Z,53.97
2024-01-16T19:07:53.497Z,54.08
2024-01-16T19:10:25.216Z,54.55
2024-01-16T19:12:54.342Z,53.51
2024-01-16T19:15:23.422Z,53.80
2024-01-16T19:17:54.506Z,54.44
2024-01-16T19:20:24.086Z,55.10
2024-01-16T19:22:56.607Z,54.94
2024-01-16T19:25:27.040Z,53.92
2024-01-16T19:27:56.120Z,53.61
2024-01-16T19:30:27.092Z,55.94
2024-01-16T19:32:56.274Z,55.44
2024-01-16T19:35:24.988Z,56.58
2024-01-16T19:37:53.582Z,57.83
2024-01-16T19:40:22.266Z,58.07
2024-01-16T19:42:51.820Z,58.26
2024-01-16T19:45:24.162Z,58.09
2024-01-16T19:47:54.364Z,59.44
2024-01-16T19:50:23.974Z,59.33
2024-01-16T19:52:56.653Z,60.39
2024-01-16T19:55:25.950Z,60.53
2024-01-16T19:57:58.468Z,60.26
2024-01-16T20:00:27.736Z,61.73
2024-01-16T20:02:57.096Z,64.50
2024-01-16T20:05:26.443Z,62.90
2024-01-16T20:07:55.226Z,61.63
2024-01-16T20:10:24.209Z,61.54
2024-01-16T20:12:52.758Z,61.90
2024-01-16T20:15:22.886Z,60.81
2024-01-16T20:17:55.356Z,59.73
2024-01-16T20:20:25.043Z,60.61
2024-01-16T20:22:54.042Z,63.75
2024-01-16T20:25:24.946Z,66.40
2024-01-16T20:27:53.828Z,63.69
2024-01-16T20:30:22.598Z,64.39
2024-01-16T20:32:54.012Z,61.68
2024-01-16T20:35:25.186Z,60.39
2024-01-16T20:37:53.762Z,59.78
2024-01-16T20:40:22.713Z,59.42
2024-01-16T20:42:51.104Z,61.98
2024-01-16T20:45:21.797Z,59.37
2024-01-16T20:50:19.491Z,58.28
2024-01-16T20:52:48.111Z,58.36
2024-01-16T20:55:16.652Z,58.95
2024-01-16T20:57:45.123Z,60.74
2024-01-16T21:00:16.140Z,61.45
2024-01-16T21:02:44.876Z,61.05
2024-01-16T21:05:13.618Z,61.03
2024-01-16T21:07:43.519Z,60.55
2024-01-16T21:10:12.299Z,65.47
2024-01-16T21:12:42.800Z,65.57
2024-01-16T21:15:11.286Z,67.48
2024-01-16T21:17:39.838Z,67.21
2024-01-16T21:20:09.401Z,69.39
2024-01-16T21:22:37.988Z,70.18
2024-01-16T21:25:07.065Z,70.39
2024-01-16T21:27:38.573Z,68.89
2024-01-16T21:30:09.763Z,67.88
2024-01-16T21:32:38.551Z,70.88
2024-01-16T21:35:07.835Z,69.36
2024-01-16T21:37:38.421Z,65.02
2024-01-16T21:40:09.065Z,63.85
2024-01-16T21:42:37.614Z,64.63
2024-01-16T21:45:06.838Z,69.29
2024-01-16T21:47:35.668Z,71.31
2024-01-16T21:50:07.565Z,73.00
2024-01-16T21:52:36.688Z,72.45
2024-01-16T21:55:05.725Z,72.16
2024-01-16T21:57:35.368Z,72.27
2024-01-16T22:00:06.001Z,71.43
2024-01-16T22:02:35.430Z,71.25
2024-01-16T22:05:04.061Z,69.80
2024-01-16T22:07:32.571Z,70.90
2024-01-16T22:10:01.668Z,71.84
2024-01-16T22:12:30.270Z,73.72
2024-01-16T22:14:58.841Z,75.03
2024-01-16T22:17:30.555Z,74.30
2024-01-16T22:19:59.299Z,72.53
2024-01-16T22:22:28.323Z,71.13
2024-01-16T22:24:56.948Z,72.25
2024-01-16T22:27:25.809Z,74.97
2024-01-16T22:29:54.399Z,72.82
2024-01-16T22:32:23.048Z,72.13
2024-01-16T22:34:51.635Z,70.03
2024-01-16T22:37:20.878Z,71.98
2024-01-16T22:39:49.327Z,73.29
2024-01-16T22:42:18.564Z,72.26
2024-01-16T22:44:47.884Z,72.45
2024-01-16T22:47:16.611Z,75.06
2024-01-16T22:49:45.146Z,75.63
2024-01-16T22:52:17.642Z,75.10
2024-01-16T22:54:47.269Z,74.66
2024-01-16T22:57:16.280Z,74.56
2024-01-16T22:59:44.783Z,71.76
2024-01-16T23:02:13.413Z,70.56
2024-01-16T23:04:41.936Z,69.61
2024-01-16T23:07:10.672Z,69.04
2024-01-16T23:09:39.159Z,69.23
2024-01-16T23:12:09.097Z,68.86
2024-01-16T23:14:38.519Z,68.89
2024-01-16T23:17:07.206Z,68.30
2024-01-16T23:19:35.737Z,67.71
2024-01-16T23:22:04.350Z,67.44
2024-01-16T23:24:32.916Z,67.13
2024-01-16T23:27:01.590Z,71.67
2024-01-16T23:29:32.238Z,74.44
2024-01-16T23:32:02.207Z,73.57
2024-01-16T23:34:30.492Z,73.25
2024-01-16T23:36:58.990Z,71.80
2024-01-16T23:39:27.891Z,71.28
2024-01-16T23:41:57.906Z,71.40
2024-01-16T23:44:26.223Z,73.06
2024-01-16T23:46:54.681Z,72.01
2024-01-16T23:49:23.070Z,72.41
2024-01-16T23:51:51.479Z,72.54
2024-01-16T23:54:20.265Z,72.96
2024-01-16T23:56:49.078Z,72.36
2024-01-16T23:59:17.653Z,71.09
